Time;durP1;ratioP1;P1;durP2;ratioP2;P2;SDS_P1;SDS_P2;PMS_P1;PMS_P2;Temp;Humidity;BMP_temperature;BMP_pressure;BME280_temperature;BME280_humidity;BME280_pressure;Samples;Min_cycle;Max_cycle;Signal;HPM_P1;HPM_P2
2022/02/26 00:02:05;;;;;;;24.10;9.80;;;;;3.38;97759.80;;;;110928;1250;41920;-67
2022/02/26 00:04:38;;;;;;;19.00;9.20;;;;;3.30;97754.20;;;;110613;1251;41643;-65
2022/02/26 00:07:08;;;;;;;20.10;9.60;;;;;3.30;97756.00;;;;110615;1252;41465;-67
2022/02/26 00:09:38;;;;;;;20.50;9.70;;;;;3.30;97760.40;;;;110472;1254;41258;-68
2022/02/26 00:12:08;;;;;;;24.40;11.20;;;;;3.30;97762.80;;;;110577;1251;41537;-67
2022/02/26 00:14:39;;;;;;;21.60;10.00;;;;;3.22;97768.40;;;;110801;1250;41164;-67
2022/02/26 00:17:09;;;;;;;23.00;10.10;;;;;3.22;97768.40;;;;110742;1253;41220;-66
2022/02/26 00:19:40;;;;;;;26.20;10.70;;;;;3.20;97768.40;;;;110554;1254;42061;-67
2022/02/26 00:22:11;;;;;;;23.60;10.80;;;;;3.24;97772.80;;;;110835;1251;41825;-67
2022/02/26 00:24:42;;;;;;;22.50;10.50;;;;;3.20;97774.80;;;;110760;1252;40834;-67
2022/02/26 00:27:12;;;;;;;26.10;12.40;;;;;3.22;97773.60;;;;110676;1250;42484;-67
2022/02/26 00:29:43;;;;;;;23.80;11.90;;;;;3.20;97774.00;;;;110801;1251;42347;-67
2022/02/26 00:32:13;;;;;;;24.70;11.50;;;;;3.20;97777.60;;;;110697;1251;42232;-65
2022/02/26 00:34:44;;;;;;;24.10;11.70;;;;;3.20;97775.60;;;;110693;1251;41410;-67
2022/02/26 00:37:14;;;;;;;25.40;11.10;;;;;3.20;97775.80;;;;110745;1250;41362;-67
2022/02/26 00:39:45;;;;;;;21.60;10.40;;;;;3.20;97780.40;;;;110601;1250;41199;-67
2022/02/26 00:42:15;;;;;;;19.00;9.20;;;;;3.20;97781.00;;;;110432;1249;41147;-68
2022/02/26 00:44:47;;;;;;;20.60;9.10;;;;;3.20;97781.00;;;;110651;1251;41182;-67
2022/02/26 00:47:17;;;;;;;20.80;9.70;;;;;3.20;97780.60;;;;110955;1247;41899;-66
2022/02/26 00:49:49;;;;;;;22.50;10.30;;;;;3.20;97783.60;;;;110893;1250;41165;-65
2022/02/26 00:52:23;;;;;;;23.20;9.60;;;;;3.10;97777.60;;;;110736;1250;41617;-67
2022/02/26 00:54:53;;;;;;;23.70;9.60;;;;;3.10;97778.00;;;;110704;1250;41152;-66
2022/02/26 00:57:24;;;;;;;24.80;10.40;;;;;3.08;97786.40;;;;110855;1248;41255;-65
2022/02/26 00:59:54;;;;;;;30.40;11.30;;;;;3.00;97788.40;;;;110797;1251;41483;-65
2022/02/26 01:02:23;;;;;;;23.60;11.50;;;;;3.00;97786.00;;;;110746;1250;41890;-68
2022/02/26 01:04:54;;;;;;;28.00;12.60;;;;;3.00;97788.40;;;;110968;1250;41602;-68
2022/02/26 01:07:24;;;;;;;23.00;12.00;;;;;3.00;97785.80;;;;110689;1251;41302;-66
2022/02/26 01:09:54;;;;;;;21.40;10.00;;;;;3.00;97783.60;;;;110756;1251;41246;-66
2022/02/26 01:12:25;;;;;;;24.00;10.20;;;;;3.00;97780.60;;;;110652;1250;41655;-66
2022/02/26 01:14:56;;;;;;;19.50;10.30;;;;;3.00;97787.00;;;;110689;1250;41149;-67
2022/02/26 01:17:26;;;;;;;26.30;11.20;;;;;3.00;97789.20;;;;110821;1250;41264;-67
2022/02/26 01:19:58;;;;;;;23.00;10.10;;;;;2.98;97784.20;;;;110736;1251;41157;-67
2022/02/26 01:22:31;;;;;;;23.30;11.70;;;;;2.96;97782.20;;;;110870;1250;41147;-67
2022/02/26 01:25:02;;;;;;;26.50;12.30;;;;;2.90;97788.60;;;;110599;1251;41148;-68
2022/02/26 01:27:32;;;;;;;25.30;11.80;;;;;2.90;97786.60;;;;110643;1251;41259;-67
2022/02/26 01:30:02;;;;;;;26.30;12.00;;;;;2.80;97782.00;;;;110560;1253;41487;-67
2022/02/26 01:32:32;;;;;;;28.50;12.50;;;;;2.80;97786.20;;;;110707;1251;41983;-67
2022/02/26 01:35:03;;;;;;;29.20;12.50;;;;;2.78;97786.80;;;;110715;1250;42048;-66
2022/02/26 01:37:33;;;;;;;27.60;12.30;;;;;2.70;97786.20;;;;110639;1250;41155;-67
2022/02/26 01:40:04;;;;;;;26.40;11.60;;;;;2.70;97790.00;;;;110681;1250;41667;-67
2022/02/26 01:42:33;;;;;;;;;;;;;2.60;97779.60;;;;110880;1248;41302;-67
2022/02/26 01:45:14;;;;;;;26.00;11.80;;;;;2.50;97780.00;;;;110945;1251;41157;-66
2022/02/26 01:47:44;;;;;;;22.60;11.40;;;;;2.40;97779.20;;;;110883;1250;42375;-66
2022/02/26 01:50:16;;;;;;;26.50;11.40;;;;;2.32;97773.80;;;;110746;1250;42469;-66
2022/02/26 01:52:46;;;;;;;24.10;11.20;;;;;2.30;97771.80;;;;110739;1251;41167;-67
2022/02/26 01:55:16;;;;;;;28.50;12.90;;;;;2.20;97770.40;;;;110709;1251;41166;-66
2022/02/26 01:57:46;;;;;;;27.20;11.90;;;;;2.20;97772.20;;;;110874;1250;41631;-67
2022/02/26 02:00:16;;;;;;;29.90;12.60;;;;;2.10;97776.60;;;;110656;1251;41273;-67
2022/02/26 02:02:47;;;;;;;27.40;12.40;;;;;2.10;97777.60;;;;110746;1252;41353;-67
2022/02/26 02:05:16;;;;;;;24.40;13.00;;;;;2.02;97779.40;;;;110592;1252;41272;-68
2022/02/26 02:07:47;;;;;;;26.60;13.10;;;;;2.00;97785.20;;;;110639;1251;41200;-67
2022/02/26 02:10:17;;;;;;;25.50;12.90;;;;;2.00;97788.80;;;;110561;1252;41152;-66
2022/02/26 02:12:48;;;;;;;30.50;14.50;;;;;2.00;97789.80;;;;110599;1252;41157;-67
2022/02/26 02:15:39;;;;;;;29.00;12.60;;;;;2.00;97786.20;;;;110616;1252;41156;-68
2022/02/26 02:18:11;;;;;;;28.00;13.20;;;;;1.90;97790.20;;;;110695;1251;41265;-67
2022/02/26 02:20:42;;;;;;;30.60;12.90;;;;;1.88;97797.00;;;;110631;1253;41155;-67
2022/02/26 02:23:11;;;;;;;27.50;14.10;;;;;1.82;97798.00;;;;110518;1254;41156;-67
2022/02/26 02:25:41;;;;;;;23.80;12.60;;;;;1.80;97800.60;;;;110721;1251;41265;-67
2022/02/26 02:28:12;;;;;;;26.30;13.40;;;;;1.80;97805.20;;;;110687;1251;41581;-66
2022/02/26 02:30:42;;;;;;;;;;;;;1.70;97801.60;;;;110856;1250;41981;-65
2022/02/26 02:33:12;;;;;;;28.10;13.30;;;;;1.70;97806.00;;;;110433;1252;41507;-67
2022/02/26 02:35:43;;;;;;;28.40;13.30;;;;;1.76;97802.60;;;;110540;1254;42388;-67
2022/02/26 02:38:15;;;;;;;;;;;;;1.80;97802.60;;;;110900;1250;41145;-65
2022/02/26 02:40:46;;;;;;;29.80;12.90;;;;;1.80;97805.60;;;;110787;1251;41123;-68
2022/02/26 02:43:16;;;;;;;27.00;13.20;;;;;1.80;97812.00;;;;110590;1253;41167;-68
2022/02/26 02:45:46;;;;;;;26.10;12.90;;;;;1.80;97815.20;;;;110485;1251;366400;-67
2022/02/26 02:48:17;;;;;;;26.90;13.40;;;;;1.82;97811.20;;;;110705;1252;41154;-67
2022/02/26 02:50:47;;;;;;;28.90;12.90;;;;;1.90;97811.80;;;;110622;1252;43278;-65
2022/02/26 02:53:18;;;;;;;25.80;12.90;;;;;1.90;97814.40;;;;110731;1251;41140;-67
2022/02/26 02:55:50;;;;;;;24.50;12.20;;;;;1.90;97811.40;;;;110645;1251;41266;-67
2022/02/26 02:58:26;;;;;;;26.00;12.90;;;;;1.90;97814.80;;;;110643;1250;41327;-67
2022/02/26 03:00:57;;;;;;;24.30;12.10;;;;;1.90;97819.80;;;;110868;1250;41476;-68
2022/02/26 03:03:28;;;;;;;24.30;13.50;;;;;2.00;97816.00;;;;110833;1250;41182;-67
2022/02/26 03:05:58;;;;;;;25.70;13.10;;;;;2.00;97817.80;;;;110990;1250;41481;-68
2022/02/26 03:08:28;;;;;;;28.50;13.30;;;;;2.00;97822.20;;;;110871;1251;41146;-69
2022/02/26 03:10:58;;;;;;;27.60;13.40;;;;;2.00;97824.80;;;;110840;1250;41183;-67
2022/02/26 03:13:29;;;;;;;26.40;11.90;;;;;2.00;97828.20;;;;110694;1250;41710;-66
2022/02/26 03:15:59;;;;;;;24.90;12.10;;;;;2.00;97829.40;;;;110647;1252;41550;-67
2022/02/26 03:18:32;;;;;;;25.40;11.40;;;;;2.00;97826.20;;;;110853;1250;42055;-67
2022/02/26 03:21:02;;;;;;;24.40;12.20;;;;;2.02;97831.40;;;;110921;1250;41152;-66
2022/02/26 03:23:35;;;;;;;27.40;12.60;;;;;2.10;97834.20;;;;110849;1251;41255;-67
2022/02/26 03:26:04;;;;;;;28.30;12.60;;;;;2.10;97839.60;;;;110825;1251;41131;-67
2022/02/26 03:28:37;;;;;;;29.00;13.00;;;;;2.10;97841.60;;;;110680;1250;41811;-66
2022/02/26 03:31:07;;;;;;;25.20;11.70;;;;;2.10;97840.40;;;;110684;1251;41152;-66
2022/02/26 03:33:36;;;;;;;23.90;11.40;;;;;2.10;97847.20;;;;110804;1250;42140;-67
2022/02/26 03:36:07;;;;;;;26.70;11.80;;;;;2.12;97851.40;;;;110654;1251;41359;-67
2022/02/26 03:38:38;;;;;;;23.60;11.00;;;;;2.16;97855.80;;;;110794;1250;41972;-66
2022/02/26 03:41:08;;;;;;;21.80;10.50;;;;;2.20;97854.80;;;;110834;1250;41798;-66
2022/02/26 03:43:38;;;;;;;22.90;10.20;;;;;2.16;97858.60;;;;110589;1250;41601;-68
2022/02/26 03:46:08;;;;;;;23.00;10.40;;;;;2.16;97863.00;;;;110680;1251;41360;-67
2022/02/26 03:48:40;;;;;;;22.70;9.80;;;;;2.12;97862.20;;;;110563;1252;42212;-66
2022/02/26 03:51:10;;;;;;;22.20;10.70;;;;;2.14;97866.20;;;;110903;1250;41201;-67
2022/02/26 03:53:42;;;;;;;24.10;10.60;;;;;2.16;97866.40;;;;110766;1250;41260;-67
2022/02/26 03:56:13;;;;;;;21.60;11.20;;;;;2.20;97869.40;;;;110682;1253;41267;-66
2022/02/26 03:58:43;;;;;;;;;;;;;2.20;97875.20;;;;110792;1251;41477;-65
2022/02/26 04:01:13;;;;;;;22.40;9.60;;;;;2.16;97872.60;;;;110908;1250;41139;-65
2022/02/26 04:03:44;;;;;;;25.70;11.30;;;;;2.12;97879.60;;;;110752;1250;41142;-67
2022/02/26 04:06:14;;;;;;;24.00;10.60;;;;;2.18;97876.20;;;;110942;1250;41874;-68
2022/02/26 04:08:45;;;;;;;21.20;10.40;;;;;2.20;97883.20;;;;110704;1250;41335;-67
2022/02/26 04:11:15;;;;;;;23.30;11.00;;;;;2.20;97883.20;;;;110795;1250;41774;-67
2022/02/26 04:13:46;;;;;;;23.40;10.00;;;;;2.20;97886.00;;;;110569;1251;41156;-66
2022/02/26 04:16:16;;;;;;;22.20;10.50;;;;;2.20;97894.20;;;;111015;1250;41280;-67
2022/02/26 04:18:48;;;;;;;25.00;13.10;;;;;2.10;97898.80;;;;110754;1250;41788;-67
2022/02/26 04:21:17;;;;;;;23.40;11.00;;;;;2.00;97901.80;;;;110707;1251;41131;-66
2022/02/26 04:23:49;;;;;;;27.80;11.10;;;;;2.00;97906.80;;;;110651;1251;41186;-66
2022/02/26 04:26:19;;;;;;;21.90;11.00;;;;;2.00;97905.40;;;;110838;1250;41320;-67
2022/02/26 04:28:50;;;;;;;;;;;;;2.00;97907.00;;;;110717;1251;41156;-66
2022/02/26 04:31:21;;;;;;;26.20;10.70;;;;;2.00;97907.80;;;;110808;1251;41367;-65
2022/02/26 04:33:53;;;;;;;22.30;10.40;;;;;2.10;97904.80;;;;110658;1250;41747;-67
2022/02/26 04:36:23;;;;;;;25.80;10.80;;;;;2.10;97898.60;;;;110680;1250;41155;-66
2022/02/26 04:38:54;;;;;;;22.10;10.80;;;;;2.14;97905.40;;;;110820;1250;41950;-67
2022/02/26 04:41:24;;;;;;;24.70;11.30;;;;;2.20;97915.40;;;;110639;1251;41272;-66
2022/02/26 04:43:56;;;;;;;21.10;11.10;;;;;2.20;97914.40;;;;110772;1251;41147;-66
2022/02/26 04:46:25;;;;;;;23.00;10.30;;;;;2.20;97915.40;;;;110649;1250;41308;-66
2022/02/26 04:48:57;;;;;;;24.10;11.10;;;;;2.22;97917.80;;;;110919;1250;41631;-67
2022/02/26 04:51:26;;;;;;;21.60;10.70;;;;;2.22;97916.40;;;;110706;1251;41200;-67
2022/02/26 04:53:57;;;;;;;20.10;10.30;;;;;2.20;97920.80;;;;110994;1247;42060;-66
2022/02/26 04:56:27;;;;;;;25.60;12.00;;;;;2.20;97927.00;;;;110830;1250;41277;-66
2022/02/26 04:59:00;;;;;;;26.40;12.50;;;;;2.20;97931.80;;;;110696;1251;41150;-67
2022/02/26 05:01:29;;;;;;;30.00;13.50;;;;;2.20;97933.20;;;;110629;1251;41155;-67
2022/02/26 05:04:00;;;;;;;;;;;;;2.20;97934.20;;;;110670;1250;41612;-66
2022/02/26 05:06:30;;;;;;;25.40;11.80;;;;;2.20;97942.40;;;;110791;1250;41199;-66
2022/02/26 05:09:01;;;;;;;25.40;11.90;;;;;2.20;97946.40;;;;110462;1254;41369;-67
2022/02/26 05:11:31;;;;;;;24.30;10.80;;;;;2.22;97945.40;;;;110748;1250;41168;-67
2022/02/26 05:14:03;;;;;;;21.10;9.70;;;;;2.30;97951.80;;;;110616;1251;42190;-66
2022/02/26 05:16:33;;;;;;;24.20;10.30;;;;;2.30;97951.20;;;;110559;1251;41273;-67
2022/02/26 05:19:05;;;;;;;19.20;9.10;;;;;2.30;97952.60;;;;110523;1251;41155;-65
2022/02/26 05:21:38;;;;;;;23.30;9.50;;;;;2.36;97954.80;;;;110684;1251;41158;-67
2022/02/26 05:24:08;;;;;;;18.70;9.10;;;;;2.40;97956.60;;;;110637;1251;41265;-65
2022/02/26 05:26:37;;;;;;;18.60;9.60;;;;;2.40;97962.20;;;;110516;1254;41419;-66
2022/02/26 05:29:08;;;;;;;20.30;9.40;;;;;2.40;97965.80;;;;110759;1251;41158;-67
2022/02/26 05:31:37;;;;;;;18.80;9.50;;;;;2.40;97971.20;;;;110622;1253;41157;-68
2022/02/26 05:34:09;;;;;;;22.30;11.60;;;;;2.40;97977.60;;;;110513;1251;41627;-66
2022/02/26 05:36:38;;;;;;;19.70;10.40;;;;;2.40;97976.20;;;;110625;1253;42384;-67
2022/02/26 05:39:10;;;;;;;20.00;9.90;;;;;2.40;97979.20;;;;110787;1251;41153;-67
2022/02/26 05:41:40;;;;;;;25.00;11.30;;;;;2.40;97981.60;;;;110495;1251;42362;-67
2022/02/26 05:44:11;;;;;;;26.50;11.90;;;;;2.40;97982.60;;;;110627;1251;41738;-66
2022/02/26 05:46:41;;;;;;;24.20;11.10;;;;;2.40;97987.60;;;;110472;1253;41186;-67
2022/02/26 05:49:11;;;;;;;21.20;10.20;;;;;2.40;97989.80;;;;110576;1251;42348;-66
2022/02/26 05:51:40;;;;;;;23.20;9.90;;;;;2.50;97992.00;;;;110578;1251;41707;-65
2022/02/26 05:54:09;;;;;;;22.70;10.30;;;;;2.50;97991.60;;;;110765;1251;42843;-65
2022/02/26 05:56:39;;;;;;;20.30;8.60;;;;;2.52;97994.80;;;;110830;1251;41159;-67
2022/02/26 05:59:08;;;;;;;18.30;9.20;;;;;2.60;97990.40;;;;110606;1251;42396;-67
2022/02/26 06:01:38;;;;;;;19.50;9.20;;;;;2.70;97995.40;;;;110819;1251;41476;-66
2022/02/26 06:04:07;;;;;;;23.20;9.70;;;;;2.74;97991.60;;;;110562;1252;41150;-66
2022/02/26 06:06:36;;;;;;;21.80;10.30;;;;;2.80;98003.20;;;;110578;1253;41606;-66
2022/02/26 06:09:05;;;;;;;18.40;9.10;;;;;2.90;97999.00;;;;110828;1251;41612;-67
2022/02/26 06:11:35;;;;;;;21.30;9.20;;;;;2.90;98000.80;;;;110616;1252;41208;-67
2022/02/26 06:14:05;;;;;;;23.10;10.00;;;;;2.98;98008.80;;;;110592;1253;41259;-66
2022/02/26 06:16:34;;;;;;;19.70;10.40;;;;;3.00;98004.60;;;;110662;1251;41141;-65
2022/02/26 06:19:03;;;;;;;21.80;9.70;;;;;3.08;98010.20;;;;110787;1251;41197;-67
2022/02/26 06:21:32;;;;;;;23.50;10.20;;;;;3.10;98011.20;;;;110816;1252;41143;-67
2022/02/26 06:24:02;;;;;;;21.20;9.60;;;;;3.20;98010.60;;;;110753;1251;42202;-66
2022/02/26 06:26:32;;;;;;;18.30;8.90;;;;;3.24;98014.60;;;;110716;1251;41171;-64
2022/02/26 06:29:06;;;;;;;20.00;8.80;;;;;3.30;98017.40;;;;110583;1253;41358;-67
2022/02/26 06:31:36;;;;;;;21.40;8.30;;;;;3.40;98015.20;;;;110835;1251;41728;-66
2022/02/26 06:34:05;;;;;;;17.80;8.00;;;;;3.50;98017.80;;;;110596;1252;41767;-67
2022/02/26 06:36:36;;;;;;;22.30;8.80;;;;;3.60;98017.60;;;;110696;1251;41250;-66
2022/02/26 06:39:06;;;;;;;16.70;8.50;;;;;3.70;98024.20;;;;110705;1251;41788;-66
2022/02/26 06:41:35;;;;;;;21.30;8.90;;;;;3.80;98026.00;;;;110596;1252;41341;-67
2022/02/26 06:44:05;;;;;;;19.50;8.60;;;;;3.90;98025.60;;;;110409;1252;41722;-67
2022/02/26 06:46:38;;;;;;;18.60;8.80;;;;;4.00;98026.40;;;;110674;1251;41157;-68
2022/02/26 06:49:08;;;;;;;20.10;8.90;;;;;4.10;98030.00;;;;110535;1253;42539;-68
2022/02/26 06:51:38;;;;;;;;;;;;;4.24;98026.60;;;;110644;1252;41524;-64
2022/02/26 06:54:07;;;;;;;17.30;8.00;;;;;4.30;98030.00;;;;110693;1250;41147;-65
2022/02/26 06:56:36;;;;;;;16.50;6.80;;;;;4.40;98030.40;;;;110509;1251;41602;-66
2022/02/26 06:59:05;;;;;;;17.30;7.70;;;;;4.58;98029.60;;;;110785;1251;41896;-67
2022/02/26 07:01:34;;;;;;;17.00;7.50;;;;;4.70;98027.00;;;;110883;1248;41159;-66
2022/02/26 07:04:04;;;;;;;16.60;7.40;;;;;4.80;98033.60;;;;110941;1249;41663;-66
2022/02/26 07:06:35;;;;;;;17.00;6.90;;;;;5.00;98035.80;;;;110902;1250;41939;-65
2022/02/26 07:09:04;;;;;;;15.90;7.60;;;;;5.20;98035.80;;;;110627;1250;41543;-64
2022/02/26 07:11:37;;;;;;;15.40;6.70;;;;;5.38;98032.40;;;;110784;1250;41127;-66
2022/02/26 07:14:06;;;;;;;16.70;7.10;;;;;5.54;98031.40;;;;110627;1251;41627;-64
2022/02/26 07:16:39;;;;;;;18.00;7.50;;;;;5.72;98034.60;;;;110629;1250;41256;-66
2022/02/26 07:19:08;;;;;;;17.70;7.00;;;;;6.00;98034.60;;;;110631;1251;41600;-66
2022/02/26 07:21:40;;;;;;;17.00;6.90;;;;;6.20;98038.00;;;;110577;1251;41156;-66
2022/02/26 07:24:11;;;;;;;16.70;7.80;;;;;6.44;98041.40;;;;110821;1250;41936;-66
2022/02/26 07:26:41;;;;;;;16.10;7.20;;;;;6.66;98044.00;;;;110670;1251;41157;-66
2022/02/26 07:29:10;;;;;;;20.70;7.20;;;;;6.88;98046.80;;;;110638;1252;41191;-66
2022/02/26 07:31:42;;;;;;;17.80;7.50;;;;;7.00;98048.80;;;;110629;1250;41478;-66
2022/02/26 07:34:11;;;;;;;17.20;6.90;;;;;7.20;98053.60;;;;110642;1251;42379;-66
2022/02/26 07:36:40;;;;;;;16.40;7.40;;;;;7.22;98055.00;;;;110839;1248;41302;-64
2022/02/26 07:39:10;;;;;;;18.30;8.60;;;;;7.20;98056.20;;;;110735;1250;41621;-68
2022/02/26 07:41:39;;;;;;;18.50;8.60;;;;;7.30;98065.40;;;;110865;1250;41613;-66
2022/02/26 07:44:08;;;;;;;18.80;9.40;;;;;7.36;98067.00;;;;110866;1250;41161;-66
2022/02/26 07:46:41;;;;;;;17.00;7.50;;;;;7.40;98064.60;;;;110954;1250;41600;-66
2022/02/26 07:49:10;;;;;;;15.90;7.40;;;;;7.44;98070.60;;;;110823;1250;41624;-65
2022/02/26 07:51:40;;;;;;;13.80;7.20;;;;;7.50;98074.20;;;;110724;1251;41608;-67
2022/02/26 07:54:09;;;;;;;13.30;6.70;;;;;7.50;98072.00;;;;110817;1250;41146;-65
2022/02/26 07:56:39;;;;;;;15.60;7.20;;;;;7.50;98080.00;;;;110808;1250;41277;-67
2022/02/26 07:59:08;;;;;;;15.70;6.30;;;;;7.50;98078.60;;;;110678;1250;41170;-66
2022/02/26 08:01:38;;;;;;;14.30;6.60;;;;;7.50;98086.20;;;;110628;1248;41268;-66
2022/02/26 08:04:07;;;;;;;13.60;6.10;;;;;7.42;98082.80;;;;110722;1251;41381;-67
2022/02/26 08:06:36;;;;;;;12.70;6.00;;;;;7.50;98084.40;;;;110823;1250;41145;-66
2022/02/26 08:09:05;;;;;;;12.90;5.70;;;;;7.56;98079.40;;;;110726;1250;41970;-67
2022/02/26 08:11:39;;;;;;;13.10;5.40;;;;;7.60;98080.00;;;;110711;1250;41171;-66
2022/02/26 08:14:08;;;;;;;13.00;5.60;;;;;7.70;98088.00;;;;110736;1250;41515;-66
2022/02/26 08:16:37;;;;;;;14.10;5.30;;;;;7.80;98091.60;;;;110732;1250;41147;-66
2022/02/26 08:19:07;;;;;;;12.50;5.70;;;;;8.00;98089.00;;;;110578;1251;41157;-66
2022/02/26 08:21:36;;;;;;;10.80;5.00;;;;;8.10;98089.80;;;;110783;1250;41266;-66
2022/02/26 08:24:06;;;;;;;11.20;4.70;;;;;8.22;98093.20;;;;110918;1249;41965;-66
2022/02/26 08:26:35;;;;;;;12.00;5.10;;;;;8.40;98094.20;;;;110766;1250;41227;-65
2022/02/26 08:29:04;;;;;;;14.90;6.00;;;;;8.54;98090.20;;;;110945;1250;41931;-66
2022/02/26 08:31:33;;;;;;;14.20;5.80;;;;;8.70;98096.20;;;;110819;1251;41154;-66
2022/02/26 08:34:07;;;;;;;12.60;5.60;;;;;8.90;98093.80;;;;110710;1249;41182;-66
2022/02/26 08:36:36;;;;;;;16.60;6.50;;;;;9.08;98091.20;;;;110707;1250;42451;-66
2022/02/26 08:39:06;;;;;;;15.70;5.60;;;;;9.20;98091.80;;;;110653;1251;41255;-65
2022/02/26 08:41:35;;;;;;;16.80;6.50;;;;;9.30;98094.40;;;;110989;1250;41951;-65
2022/02/26 08:44:06;;;;;;;12.40;4.90;;;;;9.28;98101.60;;;;110894;1249;41713;-66
2022/02/26 08:46:35;;;;;;;12.00;4.70;;;;;9.36;98100.00;;;;110881;1250;42375;-67
2022/02/26 08:49:04;;;;;;;10.90;4.70;;;;;9.44;98099.00;;;;110929;1250;41916;-66
2022/02/26 08:51:34;;;;;;;12.40;4.50;;;;;9.52;98095.40;;;;110867;1249;41163;-66
2022/02/26 08:54:06;;;;;;;11.90;4.80;;;;;9.60;98100.20;;;;110904;1248;41935;-65
2022/02/26 08:56:35;;;;;;;13.40;4.70;;;;;9.70;98099.40;;;;110876;1250;41167;-66
2022/02/26 08:59:06;;;;;;;12.20;5.20;;;;;9.80;98101.00;;;;110617;1250;41491;-64
2022/02/26 09:01:36;;;;;;;11.70;5.30;;;;;9.80;98097.00;;;;110681;1250;41264;-66
2022/02/26 09:04:06;;;;;;;10.70;4.90;;;;;9.80;98105.60;;;;110978;1250;41349;-66
2022/02/26 09:06:36;;;;;;;11.50;5.20;;;;;9.90;98109.20;;;;110869;1250;41911;-66
2022/02/26 09:09:08;;;;;;;9.30;4.00;;;;;9.98;98105.80;;;;110810;1250;41485;-64
2022/02/26 09:11:38;;;;;;;11.90;4.60;;;;;10.32;98112.20;;;;110910;1250;41150;-64
2022/02/26 09:14:08;;;;;;;12.00;5.40;;;;;10.60;98110.40;;;;110489;1251;41990;-64
2022/02/26 09:16:37;;;;;;;11.30;4.90;;;;;10.48;98115.40;;;;110821;1250;42073;-66
2022/02/26 09:19:06;;;;;;;11.90;5.10;;;;;10.30;98120.00;;;;110640;1252;41319;-66
2022/02/26 09:21:35;;;;;;;11.20;5.00;;;;;10.20;98123.60;;;;110674;1250;41156;-65
2022/02/26 09:24:05;;;;;;;11.10;5.00;;;;;10.10;98127.60;;;;110570;1252;42299;-66
2022/02/26 09:26:34;;;;;;;13.10;5.70;;;;;9.90;98129.60;;;;110941;1250;41158;-66
2022/02/26 09:29:03;;;;;;;11.60;5.30;;;;;9.66;98129.20;;;;110781;1250;41150;-65
2022/02/26 09:31:32;;;;;;;11.50;4.70;;;;;9.50;98133.00;;;;110748;1250;41614;-66
2022/02/26 09:34:02;;;;;;;9.80;4.70;;;;;9.42;98133.60;;;;110785;1251;42468;-67
2022/02/26 09:36:31;;;;;;;13.10;5.70;;;;;9.28;98138.80;;;;110811;1250;41266;-66
2022/02/26 09:38:59;;;;;;;9.40;4.50;;;;;9.20;98145.60;;;;110767;1250;41483;-66
2022/02/26 09:41:28;;;;;;;10.70;5.00;;;;;9.10;98145.20;;;;110971;1250;41169;-66
2022/02/26 09:43:59;;;;;;;11.30;4.60;;;;;9.00;98152.20;;;;110818;1251;42397;-67
2022/02/26 09:46:29;;;;;;;10.10;4.50;;;;;8.86;98153.80;;;;110965;1249;41156;-68
2022/02/26 09:48:58;;;;;;;9.60;4.20;;;;;8.70;98154.80;;;;110943;1249;41188;-67
2022/02/26 09:51:27;;;;;;;10.90;4.30;;;;;8.60;98155.20;;;;110923;1248;42386;-66
2022/02/26 09:53:56;;;;;;;10.10;4.50;;;;;8.46;98158.60;;;;110733;1250;42112;-66
2022/02/26 09:56:25;;;;;;;11.20;4.50;;;;;8.44;98158.80;;;;110697;1250;41592;-66
2022/02/26 09:59:01;;;;;;;10.10;4.60;;;;;8.42;98160.20;;;;110831;1250;41149;-67
2022/02/26 10:01:31;;;;;;;11.30;4.50;;;;;8.44;98161.80;;;;110620;1253;41601;-64
2022/02/26 10:04:11;;;;;;;9.80;4.10;;;;;8.44;98160.80;;;;110735;1250;42373;-66
2022/02/26 10:06:40;;;;;;;9.70;4.00;;;;;8.50;98164.60;;;;110588;1252;42232;-66
2022/02/26 10:09:11;;;;;;;11.10;4.70;;;;;8.50;98163.00;;;;110824;1250;41904;-65
2022/02/26 10:11:40;;;;;;;13.90;4.80;;;;;8.50;98161.80;;;;110799;1250;41172;-65
2022/02/26 10:14:13;;;;;;;9.70;4.20;;;;;8.50;98166.60;;;;110574;1251;41330;-67
2022/02/26 10:16:53;;;;;;;9.30;4.30;;;;;8.44;98167.20;;;;110598;1252;41276;-67
2022/02/26 10:19:23;;;;;;;9.30;3.70;;;;;8.46;98170.40;;;;110704;1250;42109;-66
2022/02/26 10:21:53;;;;;;;8.70;3.40;;;;;8.40;98175.00;;;;110787;1250;41598;-65
2022/02/26 10:24:22;;;;;;;9.30;4.10;;;;;8.42;98174.80;;;;110773;1250;42388;-67
2022/02/26 10:26:55;;;;;;;9.00;3.80;;;;;8.16;98179.40;;;;110798;1250;42361;-66
2022/02/26 10:29:24;;;;;;;8.60;3.30;;;;;8.12;98186.60;;;;110780;1251;41167;-66
2022/02/26 10:31:58;;;;;;;7.50;3.00;;;;;8.10;98181.00;;;;110688;1251;41866;-69
2022/02/26 10:34:35;;;;;;;7.40;3.20;;;;;8.00;98181.00;;;;110625;1252;41147;-67
2022/02/26 10:37:11;;;;;;;8.30;3.10;;;;;7.90;98178.40;;;;110831;1250;41160;-67
2022/02/26 10:39:59;;;;;;;7.70;3.20;;;;;8.00;98183.00;;;;110727;1250;42373;-67
2022/02/26 10:42:33;;;;;;;8.10;3.70;;;;;8.10;98178.00;;;;110787;1250;42555;-67
2022/02/26 10:45:12;;;;;;;9.20;3.40;;;;;8.26;98177.60;;;;110553;1250;41421;-66
2022/02/26 10:47:43;;;;;;;8.30;3.40;;;;;8.48;98178.80;;;;110770;1250;41255;-66
2022/02/26 10:50:23;;;;;;;8.70;2.90;;;;;8.70;98171.80;;;;110603;1251;41317;-68
2022/02/26 10:53:00;;;;;;;8.30;3.80;;;;;8.90;98173.60;;;;110712;1251;41306;-67
2022/02/26 10:55:59;;;;;;;8.60;3.60;;;;;9.00;98175.80;;;;110627;1252;41145;-66
2022/02/26 10:58:29;;;;;;;7.90;3.20;;;;;8.90;98174.60;;;;110873;1250;41264;-68
2022/02/26 11:01:04;;;;;;;8.10;3.20;;;;;8.90;98177.60;;;;110693;1250;41162;-67
2022/02/26 11:03:34;;;;;;;7.20;3.20;;;;;8.80;98178.00;;;;110881;1248;41159;-67
2022/02/26 11:06:06;;;;;;;7.70;3.30;;;;;8.70;98175.40;;;;110682;1250;41271;-66
2022/02/26 11:08:36;;;;;;;7.90;3.00;;;;;8.58;98176.20;;;;110943;1250;41177;-65
2022/02/26 11:11:07;;;;;;;7.30;3.00;;;;;8.60;98173.80;;;;110843;1251;41148;-67
2022/02/26 11:13:38;;;;;;;8.60;3.00;;;;;8.66;98175.40;;;;110885;1250;41643;-68
2022/02/26 11:16:07;;;;;;;7.80;3.10;;;;;8.74;98172.40;;;;110688;1251;42373;-70
2022/02/26 11:18:42;;;;;;;6.20;2.60;;;;;8.82;98176.00;;;;110789;1250;41904;-72
2022/02/26 11:21:16;;;;;;;6.60;2.70;;;;;9.02;98174.40;;;;111094;1249;41549;-70
2022/02/26 11:23:47;;;;;;;7.70;3.10;;;;;9.30;98173.40;;;;110790;1251;41255;-67
2022/02/26 11:26:19;;;;;;;9.00;3.60;;;;;9.44;98172.00;;;;110450;1252;41293;-66
2022/02/26 11:29:00;;;;;;;12.60;5.40;;;;;9.66;98166.80;;;;110574;1250;41286;-68
2022/02/26 11:31:48;;;;;;;8.10;3.30;;;;;10.20;98165.40;;;;110959;1250;42352;-67
2022/02/26 11:34:22;;;;;;;7.40;3.10;;;;;10.64;98165.20;;;;110731;1250;41730;-67
2022/02/26 11:36:55;;;;;;;10.30;3.50;;;;;10.90;98163.60;;;;110828;1250;41566;-65
2022/02/26 11:39:32;;;;;;;7.90;3.30;;;;;11.00;98164.00;;;;110805;1250;41474;-66
2022/02/26 11:42:19;;;;;;;7.00;2.80;;;;;10.86;98164.60;;;;110949;1250;41418;-66
2022/02/26 11:44:54;;;;;;;7.70;3.10;;;;;10.50;98163.60;;;;110929;1250;41635;-67
2022/02/26 11:47:33;;;;;;;7.40;2.80;;;;;10.50;98165.40;;;;110962;1250;42508;-65
2022/02/26 11:50:04;;;;;;;9.10;3.30;;;;;10.38;98168.80;;;;110889;1249;42506;-67
2022/02/26 11:52:41;;;;;;;8.50;2.80;;;;;10.18;98166.80;;;;110866;1248;42188;-65
2022/02/26 11:55:26;;;;;;;6.60;2.40;;;;;9.80;98171.00;;;;110941;1250;41249;-66
2022/02/26 11:57:58;;;;;;;7.40;3.00;;;;;9.80;98167.40;;;;110800;1250;41933;-66
2022/02/26 12:00:36;;;;;;;5.30;2.20;;;;;9.70;98165.20;;;;110821;1250;41618;-65
2022/02/26 12:03:17;;;;;;;8.20;2.90;;;;;9.66;98164.80;;;;110780;1250;41148;-66
2022/02/26 12:05:47;;;;;;;7.70;2.70;;;;;9.60;98162.40;;;;110692;1250;41726;-67
2022/02/26 12:08:44;;;;;;;6.40;2.40;;;;;9.60;98164.00;;;;110580;1250;42378;-67
2022/02/26 12:11:24;;;;;;;7.50;2.60;;;;;9.48;98163.20;;;;110849;1250;41590;-67
2022/02/26 12:14:01;;;;;;;5.80;2.40;;;;;9.20;98163.80;;;;110798;1249;41156;-66
2022/02/26 12:16:38;;;;;;;7.00;2.50;;;;;9.10;98165.60;;;;110833;1250;41181;-67
2022/02/26 12:19:08;;;;;;;7.30;3.00;;;;;9.00;98164.40;;;;110802;1250;41146;-68
2022/02/26 12:21:43;;;;;;;7.40;3.00;;;;;8.90;98166.60;;;;110836;1250;42061;-67
2022/02/26 12:24:17;;;;;;;6.60;3.00;;;;;8.88;98166.00;;;;110970;1250;41929;-66
2022/02/26 12:26:58;;;;;;;6.60;2.80;;;;;8.80;98165.40;;;;110713;1251;41418;-67
2022/02/26 12:29:42;;;;;;;;;;;;;8.70;98166.20;;;;110875;1250;41597;-68